createdAt,value
2019-05-25T00:00:35.380Z,9.60
2019-05-25T00:04:40.265Z,8.53
2019-05-25T00:08:45.178Z,7.37
2019-05-25T00:12:50.048Z,8.78
2019-05-25T00:16:54.892Z,6.03
2019-05-25T00:21:00.364Z,6.70
2019-05-25T00:25:05.457Z,7.40
2019-05-25T00:29:10.344Z,6.30
2019-05-25T00:33:15.072Z,6.87
2019-05-25T00:37:19.956Z,6.65
2019-05-25T00:41:24.833Z,7.85
2019-05-25T00:45:29.719Z,7.12
2019-05-25T00:49:34.504Z,5.45
2019-05-25T00:53:39.375Z,5.70
2019-05-25T00:57:44.439Z,7.20
2019-05-25T01:01:49.256Z,9.38
2019-05-25T01:05:54.318Z,6.10
2019-05-25T01:09:59.068Z,7.62
2019-05-25T01:14:04.445Z,6.87
2019-05-25T01:18:09.351Z,8.33
2019-05-25T01:22:14.147Z,7.90
2019-05-25T01:26:19.020Z,6.37
2019-05-25T01:30:23.907Z,4.60
2019-05-25T01:34:28.705Z,5.33
2019-05-25T01:38:33.499Z,5.05
2019-05-25T01:42:38.227Z,6.17
2019-05-25T01:46:43.060Z,7.25
2019-05-25T01:50:48.911Z,7.30
2019-05-25T01:54:59.916Z,5.80
2019-05-25T01:59:00.528Z,4.67
2019-05-25T02:03:05.334Z,6.78
2019-05-25T02:07:10.220Z,6.08
2019-05-25T02:11:14.959Z,5.20
2019-05-25T02:15:19.763Z,8.60
2019-05-25T02:19:24.513Z,4.45
2019-05-25T02:23:29.285Z,6.53
2019-05-25T02:27:34.252Z,4.30
2019-05-25T02:31:39.473Z,4.12
2019-05-25T02:35:44.333Z,7.15
2019-05-25T02:39:49.225Z,5.33
2019-05-25T02:43:54.068Z,5.62
2019-05-25T02:47:58.886Z,5.33
2019-05-25T02:52:03.776Z,5.67
2019-05-25T02:56:08.684Z,9.23
2019-05-25T03:00:14.008Z,4.67
2019-05-25T03:04:19.207Z,8.23
2019-05-25T03:08:24.056Z,8.38
2019-05-25T03:12:30.060Z,7.28
2019-05-25T03:16:35.032Z,6.67
2019-05-25T03:20:39.849Z,7.78
2019-05-25T03:24:44.604Z,6.05
2019-05-25T03:28:49.404Z,6.90
2019-05-25T03:32:54.214Z,5.95
2019-05-25T03:36:59.033Z,5.60
2019-05-25T03:41:03.891Z,8.38
2019-05-25T03:45:08.812Z,6.80
2019-05-25T03:49:13.568Z,6.40
2019-05-25T03:53:18.449Z,6.35
2019-05-25T03:57:23.569Z,6.37
2019-05-25T04:01:28.384Z,8.93
2019-05-25T04:05:33.574Z,6.70
2019-05-25T04:09:39.476Z,7.42
2019-05-25T04:13:44.365Z,5.55
2019-05-25T04:17:49.173Z,5.47
2019-05-25T04:21:53.921Z,6.85
2019-05-25T04:25:58.792Z,7.87
2019-05-25T04:30:03.888Z,6.30
2019-05-25T04:34:08.628Z,7.90
2019-05-25T04:38:13.380Z,5.92
2019-05-25T04:42:18.089Z,6.22
2019-05-25T04:46:22.896Z,6.47
2019-05-25T04:50:27.671Z,6.97
2019-05-25T04:54:32.420Z,5.80
2019-05-25T04:58:37.172Z,5.10
2019-05-25T05:02:42.010Z,4.80
2019-05-25T05:06:46.935Z,5.80
2019-05-25T05:10:52.773Z,8.05
2019-05-25T05:14:57.520Z,5.20
2019-05-25T05:19:02.280Z,5.60
2019-05-25T05:23:07.155Z,4.40
2019-05-25T05:27:11.893Z,6.55
2019-05-25T05:31:23.615Z,7.05
2019-05-25T05:35:23.664Z,5.78
2019-05-25T05:39:29.252Z,6.87
2019-05-25T05:43:37.161Z,9.08
2019-05-25T05:47:43.725Z,5.35
2019-05-25T05:51:50.519Z,5.70
2019-05-25T05:55:55.795Z,6.08
2019-05-25T06:00:00.625Z,6.22
2019-05-25T06:04:05.660Z,6.80
2019-05-25T06:08:10.552Z,6.55
2019-05-25T06:12:15.457Z,6.17
2019-05-25T06:16:20.642Z,7.53
2019-05-25T06:20:25.540Z,6.87
2019-05-25T06:24:30.803Z,10.38
2019-05-25T06:28:35.527Z,9.28
2019-05-25T06:32:40.428Z,6.67
2019-05-25T06:36:46.063Z,7.05
2019-05-25T06:40:50.957Z,9.20
2019-05-25T06:44:55.808Z,7.45
2019-05-25T06:49:00.721Z,8.05
2019-05-25T06:53:05.649Z,7.00
2019-05-25T06:57:10.568Z,7.12
2019-05-25T07:01:15.387Z,7.72
2019-05-25T07:05:20.552Z,7.85
2019-05-25T07:09:25.459Z,10.90
2019-05-25T07:13:30.349Z,6.33
2019-05-25T07:17:35.336Z,8.48
2019-05-25T07:21:40.231Z,8.35
2019-05-25T07:25:45.187Z,10.10
2019-05-25T07:29:50.175Z,6.33
2019-05-25T07:33:55.072Z,7.28
2019-05-25T07:37:59.968Z,8.18
2019-05-25T07:42:04.873Z,7.58
2019-05-25T07:46:09.789Z,13.45
2019-05-25T07:50:15.532Z,7.20
2019-05-25T07:54:20.392Z,7.65
2019-05-25T07:58:25.286Z,9.08
2019-05-25T08:02:30.205Z,10.70
2019-05-25T08:06:35.125Z,7.70
2019-05-25T08:10:40.031Z,7.42
2019-05-25T08:14:45.181Z,10.28
2019-05-25T08:18:50.687Z,8.25
2019-05-25T08:22:55.594Z,8.90
2019-05-25T08:27:00.435Z,11.33
2019-05-25T08:31:05.659Z,7.90
2019-05-25T08:35:11.166Z,10.65
2019-05-25T08:39:16.070Z,8.40
2019-05-25T08:43:20.984Z,8.03
2019-05-25T08:47:25.816Z,8.28
2019-05-25T08:51:31.088Z,11.70
2019-05-25T08:55:36.009Z,6.42
2019-05-25T08:59:40.917Z,6.58
2019-05-25T09:03:45.840Z,9.43
2019-05-25T09:07:50.858Z,10.53
2019-05-25T09:11:55.906Z,9.38
2019-05-25T09:16:00.725Z,8.83
2019-05-25T09:20:06.276Z,9.65
2019-05-25T09:24:11.180Z,8.45
2019-05-25T09:28:16.047Z,10.58
2019-05-25T09:32:22.090Z,7.67
2019-05-25T09:36:26.971Z,5.15
2019-05-25T09:40:31.871Z,8.93
2019-05-25T09:44:36.764Z,6.53
2019-05-25T09:48:41.675Z,5.10
2019-05-25T09:52:46.520Z,7.97
2019-05-25T09:56:51.492Z,5.72
2019-05-25T10:00:56.384Z,4.30
2019-05-25T10:05:01.380Z,9.33
2019-05-25T10:09:07.720Z,6.35
2019-05-25T10:13:12.625Z,7.33
2019-05-25T10:17:17.454Z,7.97
2019-05-25T10:21:22.300Z,7.50
2019-05-25T10:25:28.764Z,7.97
2019-05-25T10:29:37.022Z,7.85
2019-05-25T10:33:40.136Z,7.50
2019-05-25T10:37:45.006Z,6.83
2019-05-25T10:41:49.946Z,5.72
2019-05-25T10:45:54.875Z,9.40
2019-05-25T10:49:59.704Z,7.85
2019-05-25T10:54:04.625Z,9.00
2019-05-25T10:58:09.556Z,7.62
2019-05-25T11:02:14.373Z,5.05
2019-05-25T11:06:19.300Z,6.70
2019-05-25T11:10:24.707Z,5.15
2019-05-25T11:14:29.621Z,6.72
2019-05-25T11:18:34.593Z,7.17
2019-05-25T11:22:39.483Z,7.10
2019-05-25T11:26:44.332Z,5.42
2019-05-25T11:30:49.240Z,4.00
2019-05-25T11:34:54.426Z,7.42
2019-05-25T11:38:59.169Z,5.92
2019-05-25T11:43:04.056Z,5.47
2019-05-25T11:47:10.048Z,5.37
2019-05-25T11:51:14.907Z,4.30
2019-05-25T11:55:20.324Z,4.12
2019-05-25T11:59:25.165Z,4.83
2019-05-25T12:03:30.064Z,4.50
2019-05-25T12:07:34.960Z,4.85
2019-05-25T12:11:39.880Z,4.30
2019-05-25T12:15:44.784Z,9.13
2019-05-25T12:19:49.609Z,8.13
2019-05-25T12:23:54.515Z,7.65
2019-05-25T12:27:59.451Z,7.37
2019-05-25T12:32:04.691Z,7.33
2019-05-25T12:36:11.715Z,7.85
2019-05-25T12:40:16.942Z,5.00
2019-05-25T12:44:21.848Z,12.60
2019-05-25T12:48:27.892Z,4.60
2019-05-25T12:52:32.808Z,7.20
2019-05-25T12:56:37.956Z,7.22
2019-05-25T13:00:55.565Z,7.10
2019-05-25T13:04:50.154Z,5.17
2019-05-25T13:08:54.991Z,5.78
2019-05-25T13:13:02.056Z,5.55
2019-05-25T13:17:06.268Z,7.58
2019-05-25T13:21:11.182Z,5.05
2019-05-25T13:25:16.409Z,4.85
2019-05-25T13:29:21.283Z,6.10
2019-05-25T13:33:26.116Z,5.62
2019-05-25T13:37:31.237Z,5.22
2019-05-25T13:41:36.153Z,5.55
2019-05-25T13:45:41.367Z,4.03
2019-05-25T13:49:46.192Z,3.42
2019-05-25T13:53:50.965Z,3.58
2019-05-25T13:57:55.851Z,6.03
2019-05-25T14:02:00.689Z,3.85
2019-05-25T14:06:05.712Z,5.67
2019-05-25T14:10:11.393Z,6.05
2019-05-25T14:14:16.561Z,5.83
2019-05-25T14:18:21.657Z,7.08
2019-05-25T14:22:26.560Z,6.25
2019-05-25T14:26:31.484Z,7.37
2019-05-25T14:30:36.440Z,6.60
2019-05-25T14:34:41.345Z,5.85
2019-05-25T14:38:46.276Z,8.15
2019-05-25T14:42:51.166Z,5.20
2019-05-25T14:46:56.076Z,5.15
2019-05-25T14:51:00.996Z,4.25
2019-05-25T14:55:06.482Z,5.12
2019-05-25T14:59:11.383Z,6.62
2019-05-25T15:03:16.358Z,5.22
2019-05-25T15:07:21.630Z,4.17
2019-05-25T15:11:26.520Z,4.85
2019-05-25T15:15:31.424Z,4.08
2019-05-25T15:19:36.406Z,6.30
2019-05-25T15:23:41.624Z,5.72
2019-05-25T15:27:46.568Z,6.65
2019-05-25T15:31:51.399Z,6.20
2019-05-25T15:35:56.367Z,8.20
2019-05-25T15:40:02.089Z,7.05
2019-05-25T15:44:07.060Z,9.75
2019-05-25T15:48:11.986Z,8.60
2019-05-25T15:52:16.907Z,8.68
2019-05-25T15:56:22.181Z,9.35
2019-05-25T16:00:45.161Z,8.45
2019-05-25T16:04:49.993Z,9.20
2019-05-25T16:08:55.121Z,7.95
2019-05-25T16:13:00.039Z,6.40
2019-05-25T16:17:05.115Z,10.60
2019-05-25T16:21:10.044Z,7.97
2019-05-25T16:25:14.813Z,8.88
2019-05-25T16:29:20.048Z,7.83
2019-05-25T16:33:25.048Z,7.42
2019-05-25T16:37:30.051Z,8.33
2019-05-25T16:41:35.241Z,7.20
2019-05-25T16:45:40.185Z,7.03
2019-05-25T16:49:45.121Z,6.20
2019-05-25T16:53:50.117Z,7.33
2019-05-25T16:57:55.970Z,6.78
2019-05-25T17:02:00.889Z,8.43
2019-05-25T17:06:05.812Z,5.70
2019-05-25T17:10:10.828Z,5.03
2019-05-25T17:14:15.737Z,5.65
2019-05-25T17:18:20.587Z,6.08
2019-05-25T17:22:25.464Z,8.38
2019-05-25T17:26:30.212Z,8.53
2019-05-25T17:30:45.951Z,7.40
2019-05-25T17:34:50.882Z,7.72
2019-05-25T17:38:55.820Z,6.85
2019-05-25T17:43:00.692Z,9.43
2019-05-25T17:47:05.693Z,7.30
2019-05-25T17:51:10.602Z,8.60
2019-05-25T17:55:15.496Z,7.65
2019-05-25T17:59:20.340Z,8.18
2019-05-25T18:03:25.158Z,7.40
2019-05-25T18:07:30.068Z,7.12
2019-05-25T18:11:34.815Z,7.12
2019-05-25T18:15:39.786Z,6.37
2019-05-25T18:19:44.596Z,6.78
2019-05-25T18:23:49.491Z,5.40
2019-05-25T18:27:55.390Z,9.18
2019-05-25T18:32:00.383Z,8.15
2019-05-25T18:36:05.283Z,7.40
2019-05-25T18:40:10.819Z,6.58
2019-05-25T18:44:16.027Z,10.45
2019-05-25T18:48:21.040Z,10.32
2019-05-25T18:52:25.940Z,9.43
2019-05-25T18:56:31.958Z,9.75
2019-05-25T19:00:36.873Z,9.03
2019-05-25T19:04:48.119Z,8.95
2019-05-25T19:08:48.463Z,7.53
2019-05-25T19:12:53.364Z,7.55
2019-05-25T19:16:58.342Z,6.85
2019-05-25T19:21:03.266Z,8.33
2019-05-25T19:25:10.687Z,8.55
2019-05-25T19:29:15.560Z,9.55
2019-05-25T19:33:23.244Z,7.00
2019-05-25T19:37:28.695Z,6.53
2019-05-25T19:41:33.607Z,10.13
2019-05-25T19:45:38.523Z,9.18
2019-05-25T19:49:44.688Z,9.18
2019-05-25T19:53:49.824Z,7.25
2019-05-25T19:57:54.742Z,7.95
2019-05-25T20:01:59.652Z,7.15
2019-05-25T20:06:04.608Z,7.87
2019-05-25T20:10:11.274Z,5.78
2019-05-25T20:14:16.484Z,6.78
2019-05-25T20:18:21.380Z,8.50
2019-05-25T20:22:26.244Z,7.92
2019-05-25T20:26:31.221Z,8.23
2019-05-25T20:30:36.112Z,7.90
2019-05-25T20:34:40.946Z,7.05
2019-05-25T20:38:45.768Z,7.80
2019-05-25T20:42:50.676Z,6.87
2019-05-25T20:46:55.851Z,8.83
2019-05-25T20:51:00.683Z,6.90
2019-05-25T20:55:06.240Z,7.97
2019-05-25T20:59:11.077Z,9.15
2019-05-25T21:03:16.143Z,10.15
2019-05-25T21:07:20.976Z,16.70
2019-05-25T21:11:28.876Z,8.95
2019-05-25T21:15:33.963Z,9.90
2019-05-25T21:19:39.185Z,10.98
2019-05-25T21:23:44.108Z,11.00
2019-05-25T21:27:48.988Z,11.55
2019-05-25T21:31:53.874Z,14.78
2019-05-25T21:36:08.335Z,12.10
2019-05-25T21:40:06.936Z,11.88
2019-05-25T21:44:11.912Z,12.75
2019-05-25T21:48:18.189Z,13.35
2019-05-25T21:52:23.445Z,11.53
2019-05-25T21:56:28.524Z,12.82
2019-05-25T22:00:37.365Z,11.73
2019-05-25T22:04:42.720Z,12.73
2019-05-25T22:08:47.839Z,13.88
2019-05-25T22:12:52.668Z,13.90
2019-05-25T22:16:57.696Z,13.10
2019-05-25T22:21:02.768Z,14.45
2019-05-25T22:25:08.662Z,16.45
2019-05-25T22:29:13.571Z,12.50
2019-05-25T22:33:18.483Z,12.50
2019-05-25T22:37:23.308Z,12.73
2019-05-25T22:41:28.145Z,13.25
2019-05-25T22:45:33.359Z,12.70
2019-05-25T22:49:38.479Z,11.73
2019-05-25T22:53:43.640Z,14.00
2019-05-25T22:57:48.474Z,11.33
2019-05-25T23:01:53.372Z,11.65
2019-05-25T23:05:58.507Z,10.80
2019-05-25T23:10:03.433Z,13.40
2019-05-25T23:14:09.955Z,10.00
2019-05-25T23:18:16.117Z,12.40
2019-05-25T23:22:21.312Z,12.15
2019-05-25T23:26:26.276Z,10.55
2019-05-25T23:30:31.176Z,12.75
2019-05-25T23:34:36.288Z,14.10
2019-05-25T23:38:42.255Z,13.00
2019-05-25T23:42:47.278Z,10.90
2019-05-25T23:46:52.423Z,12.23
2019-05-25T23:50:57.349Z,13.38
2019-05-25T23:55:04.970Z,12.28
2019-05-25T23:59:08.967Z,10.10
